Raymondville, Texas
Current Conditions -  °F | °C
As of 10:52 PM on Sunday 19 Oct 2014 (Local Time) from KHRL Reporting Station
Clear Clear  
Wind Chill: 78°   Ceiling: Unl
Heat Index: 80°   Visibility: 10mi
Dew Point: 70°   Wind: 3mph
Humidity: 76%   Direction: 40°NE
Pressure: 29.97"   Gusts: NA
Location:  26.48°N, 97.78°W
Report Text: KHRL 200352Z 04003KT 10SM CLR 26/21 A2997 RMK AO2 SLP149 T02560211
Loading
Personal Weather Stations






























Interactive Weather Map
Tropical Storm Tracking
New forecast layout! Learn more

10-Day Weather Forecast

Advertisements
Track Severe Weather on mobile